Wenatchee, WA (98807)

6:26 PM PDT on May 29, 2015 (GMT -0700)
Pitcher Canyon | | Change Station
CLOSE
Current Station
Personal Weather Station
Location: Wenatchee, WA
Elevation: 1440 ft
Nearby Weather Stations

Elev 1440 ft 47.37 °N, 120.33 °W | Updated 18 seconds ago

Partly Cloudy
Partly Cloudy
74.6 °F
Feels Like 77 °F
N
0.0
Wind Variable Wind from NE
Gusts 1.0 mph

Today
High -- | Low -- °F
--% Chance of Precip.
Yesterday
High -- | Low -- °F
Precip. -- in
5:10 AM 8:47 PM
Waxing Gibbous, 87% visible
Pressure 29.84 in
Visibility 10.0 miles
Clouds Few 12000 ft
Heat Index 77 °F
Dew Point 63 °F
Humidity 68%
Rainfall 0.04 in
Snow Depth Not available.
UV out of 12
Pollen 8.90 out of 12
Air Quality Not available.
Flu Activity Sporadic
SPECI KEAT 300121Z AUTO 35005KT 10SM FEW120 27/10 A2984 RMK AO2 T02670100

More Conditions Fewer Conditions

Pressure 29.84 in
Visibility 10.0 miles
Clouds Few 12000 ft
Heat Index 77 °F
Dew Point 63 °F
Humidity 68%
Rainfall 0.04 in
Snow Depth Not available.
UV out of 12
Pollen 8.90 out of 12
Air Quality Not available.
Flu Activity Sporadic
SPECI KEAT 300121Z AUTO 35005KT 10SM FEW120 27/10 A2984 RMK AO2 T02670100

More Conditions Fewer Conditions

10-Day Weather Forecast

Almanac

Astronomy

May. 29, 2015 Rise Set
Actual Time
Civil Twilight
Nautical Twilight
Astronomical Twilight
Moon
Length of Visible Light
Length of Day
Tomorrow will be .
, % of the Moon is Illuminated

Today's Extremes

State Highs State Lows

Community

WunderPhotos

Upload Photos

1,825,413 photos uploaded!

WunderBlogs® & News

Nearby

Air Quality

  Air Quality AQ Index Pollutant
Not available.

Snow Depth

Station Depth Elevation

Earthquake Activity

City Distance Mag. Time & Date
Minimum magnitude displayed is 2.5.

Coastal Water Temperatures

Place Temperature

Stations

Nearby Weather Stations

Station Location Temp. Windchill Dew Point Humidity Wind Precip. Elev Updated Type
                   
Flash Flood Warning
Statement as of 6:25 PM PDT on May 29, 2015

... The Flash Flood Warning for southwestern Chelan County will expire
at 630 PM PDT...

The heavy rain has ended... and flooding is no longer expected to pose
a threat.

Lat... Lon 4774 12077 4772 12073 4763 12071 4764 12084
      4772 12088


Sb


Areal Flood Advisory
Statement as of 6:19 PM PDT on May 29, 2015

The National Weather Service in Spokane has issued a

* Flood Advisory for...
central Chelan County in north central Washington...

* until 815 PM PDT

* at 616 PM PDT... Doppler radar indicated heavy rain due to
thunderstorms. This will cause minor debris flows and mudslides along
sections of Entiat River Road near the 2014 chiawakum burn scar north
of Ardenvoir.

* Some locations that will experience flooding include...
Cottonwood Campground and Silver Falls campground.

Lat... Lon 4808 12058 4798 12046 4792 12055 4804 12070


Sb